sensor_id;sensor_type;location;lat;lon;timestamp;temperature;humidity
72380;SHT30;60354;47.798;12.472;2023-07-30T00:01:13;18.12;91.26
72380;SHT30;60354;47.798;12.472;2023-07-30T00:03:39;18.15;91.33
72380;SHT30;60354;47.798;12.472;2023-07-30T00:06:04;18.13;91.38
72380;SHT30;60354;47.798;12.472;2023-07-30T00:08:30;18.13;91.19
72380;SHT30;60354;47.798;12.472;2023-07-30T00:10:59;18.19;90.74
72380;SHT30;60354;47.798;12.472;2023-07-30T00:13:25;18.18;90.97
72380;SHT30;60354;47.798;12.472;2023-07-30T00:15:51;18.21;91.01
72380;SHT30;60354;47.798;12.472;2023-07-30T00:18:16;18.21;91.36
72380;SHT30;60354;47.798;12.472;2023-07-30T00:20:42;18.21;91.70
72380;SHT30;60354;47.798;12.472;2023-07-30T00:23:10;18.21;91.88
72380;SHT30;60354;47.798;12.472;2023-07-30T00:25:36;18.16;91.35
72380;SHT30;60354;47.798;12.472;2023-07-30T00:28:02;18.24;91.99
72380;SHT30;60354;47.798;12.472;2023-07-30T00:30:27;18.21;92.52
72380;SHT30;60354;47.798;12.472;2023-07-30T00:32:53;18.22;92.57
72380;SHT30;60354;47.798;12.472;2023-07-30T00:35:19;18.18;92.75
72380;SHT30;60354;47.798;12.472;2023-07-30T00:37:44;18.19;92.75
72380;SHT30;60354;47.798;12.472;2023-07-30T00:40:10;18.15;93.08
72380;SHT30;60354;47.798;12.472;2023-07-30T00:42:36;18.13;93.21
72380;SHT30;60354;47.798;12.472;2023-07-30T00:45:02;18.10;93.79
72380;SHT30;60354;47.798;12.472;2023-07-30T00:47:29;18.01;94.14
72380;SHT30;60354;47.798;12.472;2023-07-30T00:49:55;17.95;94.05
72380;SHT30;60354;47.798;12.472;2023-07-30T00:52:21;17.87;94.56
72380;SHT30;60354;47.798;12.472;2023-07-30T00:54:48;17.85;94.52
72380;SHT30;60354;47.798;12.472;2023-07-30T00:57:15;17.85;94.89
72380;SHT30;60354;47.798;12.472;2023-07-30T00:59:41;17.87;94.84
72380;SHT30;60354;47.798;12.472;2023-07-30T01:02:07;17.82;94.81
72380;SHT30;60354;47.798;12.472;2023-07-30T01:04:36;17.85;94.97
72380;SHT30;60354;47.798;12.472;2023-07-30T01:07:06;17.81;94.87
72380;SHT30;60354;47.798;12.472;2023-07-30T01:09:33;17.82;94.65
72380;SHT30;60354;47.798;12.472;2023-07-30T01:12:00;17.87;94.77
72380;SHT30;60354;47.798;12.472;2023-07-30T01:14:27;17.88;94.17
72380;SHT30;60354;47.798;12.472;2023-07-30T01:16:53;17.92;94.18
72380;SHT30;60354;47.798;12.472;2023-07-30T01:19:19;17.91;94.45
72380;SHT30;60354;47.798;12.472;2023-07-30T01:21:44;17.89;94.15
72380;SHT30;60354;47.798;12.472;2023-07-30T01:24:10;17.92;94.41
72380;SHT30;60354;47.798;12.472;2023-07-30T01:27:08;17.89;94.53
72380;SHT30;60354;47.798;12.472;2023-07-30T01:32:05;17.85;94.88
72380;SHT30;60354;47.798;12.472;2023-07-30T01:34:34;17.87;94.70
72380;SHT30;60354;47.798;12.472;2023-07-30T01:37:00;17.85;94.30
72380;SHT30;60354;47.798;12.472;2023-07-30T01:39:27;17.74;94.69
72380;SHT30;60354;47.798;12.472;2023-07-30T01:41:54;17.68;94.84
72380;SHT30;60354;47.798;12.472;2023-07-30T01:44:20;17.68;94.35
72380;SHT30;60354;47.798;12.472;2023-07-30T01:46:46;17.71;94.77
72380;SHT30;60354;47.798;12.472;2023-07-30T01:49:11;17.78;94.74
72380;SHT30;60354;47.798;12.472;2023-07-30T01:51:37;17.79;94.64
72380;SHT30;60354;47.798;12.472;2023-07-30T01:54:03;17.77;94.55
72380;SHT30;60354;47.798;12.472;2023-07-30T01:56:28;17.75;94.59
72380;SHT30;60354;47.798;12.472;2023-07-30T01:58:54;17.68;94.73
72380;SHT30;60354;47.798;12.472;2023-07-30T02:01:20;17.68;94.96
72380;SHT30;60354;47.798;12.472;2023-07-30T02:03:45;17.64;95.41
72380;SHT30;60354;47.798;12.472;2023-07-30T02:06:11;17.57;95.64
72380;SHT30;60354;47.798;12.472;2023-07-30T02:08:37;17.61;95.49
72380;SHT30;60354;47.798;12.472;2023-07-30T02:11:03;17.58;95.41
72380;SHT30;60354;47.798;12.472;2023-07-30T02:13:29;17.60;95.56
72380;SHT30;60354;47.798;12.472;2023-07-30T02:15:54;17.55;95.41
72380;SHT30;60354;47.798;12.472;2023-07-30T02:18:20;17.60;94.84
72380;SHT30;60354;47.798;12.472;2023-07-30T02:20:45;17.57;94.98
72380;SHT30;60354;47.798;12.472;2023-07-30T02:23:11;17.55;94.94
72380;SHT30;60354;47.798;12.472;2023-07-30T02:25:37;17.53;94.88
72380;SHT30;60354;47.798;12.472;2023-07-30T02:28:03;17.54;94.86
72380;SHT30;60354;47.798;12.472;2023-07-30T02:30:29;17.55;94.50
72380;SHT30;60354;47.798;12.472;2023-07-30T02:32:54;17.57;94.62
72380;SHT30;60354;47.798;12.472;2023-07-30T02:35:20;17.58;94.46
72380;SHT30;60354;47.798;12.472;2023-07-30T02:37:46;17.61;94.12
72380;SHT30;60354;47.798;12.472;2023-07-30T02:40:11;17.66;93.17
72380;SHT30;60354;47.798;12.472;2023-07-30T02:42:37;17.66;92.97
72380;SHT30;60354;47.798;12.472;2023-07-30T02:45:03;17.68;93.60
72380;SHT30;60354;47.798;12.472;2023-07-30T02:47:29;17.63;94.30
72380;SHT30;60354;47.798;12.472;2023-07-30T02:49:55;17.61;94.51
72380;SHT30;60354;47.798;12.472;2023-07-30T02:52:20;17.67;94.76
72380;SHT30;60354;47.798;12.472;2023-07-30T02:54:46;17.57;94.50
72380;SHT30;60354;47.798;12.472;2023-07-30T02:57:11;17.60;94.24
72380;SHT30;60354;47.798;12.472;2023-07-30T02:59:38;17.60;94.58
72380;SHT30;60354;47.798;12.472;2023-07-30T03:02:04;17.64;94.14
72380;SHT30;60354;47.798;12.472;2023-07-30T03:04:33;17.64;94.54
72380;SHT30;60354;47.798;12.472;2023-07-30T03:06:58;17.66;93.37
72380;SHT30;60354;47.798;12.472;2023-07-30T03:09:27;17.60;93.98
72380;SHT30;60354;47.798;12.472;2023-07-30T03:11:53;17.60;94.29
72380;SHT30;60354;47.798;12.472;2023-07-30T03:14:19;17.61;93.34
72380;SHT30;60354;47.798;12.472;2023-07-30T03:16:49;17.63;93.63
72380;SHT30;60354;47.798;12.472;2023-07-30T03:19:15;17.58;94.35
72380;SHT30;60354;47.798;12.472;2023-07-30T03:21:40;17.54;94.37
72380;SHT30;60354;47.798;12.472;2023-07-30T03:24:06;17.50;94.40
72380;SHT30;60354;47.798;12.472;2023-07-30T03:26:32;17.47;94.81
72380;SHT30;60354;47.798;12.472;2023-07-30T03:28:57;17.44;94.77
72380;SHT30;60354;47.798;12.472;2023-07-30T03:31:23;17.44;94.62
72380;SHT30;60354;47.798;12.472;2023-07-30T03:33:48;17.44;94.92
72380;SHT30;60354;47.798;12.472;2023-07-30T03:36:14;17.47;94.83
72380;SHT30;60354;47.798;12.472;2023-07-30T03:38:40;17.41;95.13
72380;SHT30;60354;47.798;12.472;2023-07-30T03:41:06;17.41;95.75
72380;SHT30;60354;47.798;12.472;2023-07-30T03:43:35;17.34;95.74
72380;SHT30;60354;47.798;12.472;2023-07-30T03:46:00;17.37;95.65
72380;SHT30;60354;47.798;12.472;2023-07-30T03:48:26;17.34;95.69
72380;SHT30;60354;47.798;12.472;2023-07-30T03:50:53;17.37;95.65
72380;SHT30;60354;47.798;12.472;2023-07-30T03:53:18;17.38;95.64
72380;SHT30;60354;47.798;12.472;2023-07-30T03:55:44;17.41;95.44
72380;SHT30;60354;47.798;12.472;2023-07-30T03:58:09;17.44;95.38
72380;SHT30;60354;47.798;12.472;2023-07-30T04:00:35;17.43;95.25
72380;SHT30;60354;47.798;12.472;2023-07-30T04:03:01;17.46;95.02
72380;SHT30;60354;47.798;12.472;2023-07-30T04:05:28;17.46;95.13
72380;SHT30;60354;47.798;12.472;2023-07-30T04:07:53;17.48;94.84
72380;SHT30;60354;47.798;12.472;2023-07-30T04:10:19;17.48;94.89
72380;SHT30;60354;47.798;12.472;2023-07-30T04:12:44;17.50;94.84
72380;SHT30;60354;47.798;12.472;2023-07-30T04:15:10;17.46;94.93
72380;SHT30;60354;47.798;12.472;2023-07-30T04:17:39;17.44;95.02
72380;SHT30;60354;47.798;12.472;2023-07-30T04:20:05;17.47;94.69
72380;SHT30;60354;47.798;12.472;2023-07-30T04:22:31;17.51;94.45
72380;SHT30;60354;47.798;12.472;2023-07-30T04:24:56;17.51;93.97
72380;SHT30;60354;47.798;12.472;2023-07-30T04:27:22;17.60;93.83
72380;SHT30;60354;47.798;12.472;2023-07-30T04:29:47;17.64;93.62
72380;SHT30;60354;47.798;12.472;2023-07-30T04:32:13;17.63;93.66
72380;SHT30;60354;47.798;12.472;2023-07-30T04:34:38;17.66;93.77
72380;SHT30;60354;47.798;12.472;2023-07-30T04:37:04;17.66;93.84
72380;SHT30;60354;47.798;12.472;2023-07-30T04:39:35;17.66;93.85
72380;SHT30;60354;47.798;12.472;2023-07-30T04:42:01;17.61;92.96
72380;SHT30;60354;47.798;12.472;2023-07-30T04:44:26;17.68;92.47
72380;SHT30;60354;47.798;12.472;2023-07-30T04:46:55;17.75;92.46
72380;SHT30;60354;47.798;12.472;2023-07-30T04:49:20;17.74;92.25
72380;SHT30;60354;47.798;12.472;2023-07-30T04:51:46;17.75;92.03
72380;SHT30;60354;47.798;12.472;2023-07-30T04:54:12;17.81;90.18
72380;SHT30;60354;47.798;12.472;2023-07-30T04:56:37;17.88;90.60
72380;SHT30;60354;47.798;12.472;2023-07-30T04:59:03;17.88;91.01
72380;SHT30;60354;47.798;12.472;2023-07-30T05:01:29;17.92;91.25
72380;SHT30;60354;47.798;12.472;2023-07-30T05:03:54;17.94;91.73
72380;SHT30;60354;47.798;12.472;2023-07-30T05:06:20;17.92;91.80
72380;SHT30;60354;47.798;12.472;2023-07-30T05:08:46;17.92;92.16
72380;SHT30;60354;47.798;12.472;2023-07-30T05:11:11;17.95;91.28
72380;SHT30;60354;47.798;12.472;2023-07-30T05:13:37;17.97;91.25
72380;SHT30;60354;47.798;12.472;2023-07-30T05:16:02;17.95;90.44
72380;SHT30;60354;47.798;12.472;2023-07-30T05:18:28;18.02;90.87
72380;SHT30;60354;47.798;12.472;2023-07-30T05:20:54;18.01;90.57
72380;SHT30;60354;47.798;12.472;2023-07-30T05:23:20;18.05;89.93
72380;SHT30;60354;47.798;12.472;2023-07-30T05:25:45;18.04;90.76
72380;SHT30;60354;47.798;12.472;2023-07-30T05:28:11;18.02;91.09
72380;SHT30;60354;47.798;12.472;2023-07-30T05:30:37;18.08;91.16
72380;SHT30;60354;47.798;12.472;2023-07-30T05:33:02;18.13;91.22
72380;SHT30;60354;47.798;12.472;2023-07-30T05:35:28;18.13;91.56
72380;SHT30;60354;47.798;12.472;2023-07-30T05:37:53;18.13;90.59
72380;SHT30;60354;47.798;12.472;2023-07-30T05:40:19;18.19;90.80
72380;SHT30;60354;47.798;12.472;2023-07-30T05:42:44;18.25;90.87
72380;SHT30;60354;47.798;12.472;2023-07-30T05:45:10;18.32;89.21
72380;SHT30;60354;47.798;12.472;2023-07-30T05:47:36;18.45;89.89
72380;SHT30;60354;47.798;12.472;2023-07-30T05:50:02;18.67;88.81
72380;SHT30;60354;47.798;12.472;2023-07-30T05:52:28;18.64;87.69
72380;SHT30;60354;47.798;12.472;2023-07-30T05:54:53;18.63;88.22
72380;SHT30;60354;47.798;12.472;2023-07-30T05:57:19;18.67;88.01
72380;SHT30;60354;47.798;12.472;2023-07-30T05:59:44;18.73;87.83
72380;SHT30;60354;47.798;12.472;2023-07-30T06:02:09;18.77;86.17
72380;SHT30;60354;47.798;12.472;2023-07-30T06:04:35;18.84;86.15
72380;SHT30;60354;47.798;12.472;2023-07-30T06:07:02;18.97;86.60
72380;SHT30;60354;47.798;12.472;2023-07-30T06:09:28;19.19;86.14
72380;SHT30;60354;47.798;12.472;2023-07-30T06:11:55;19.34;86.50
72380;SHT30;60354;47.798;12.472;2023-07-30T06:14:20;19.17;85.01
72380;SHT30;60354;47.798;12.472;2023-07-30T06:16:46;19.96;80.41
72380;SHT30;60354;47.798;12.472;2023-07-30T06:19:11;20.57;79.89
72380;SHT30;60354;47.798;12.472;2023-07-30T06:21:37;20.33;79.99
72380;SHT30;60354;47.798;12.472;2023-07-30T06:24:02;20.91;75.75
72380;SHT30;60354;47.798;12.472;2023-07-30T06:26:28;21.16;76.49
72380;SHT30;60354;47.798;12.472;2023-07-30T06:28:53;20.94;76.33
72380;SHT30;60354;47.798;12.472;2023-07-30T06:31:19;21.12;76.22
72380;SHT30;60354;47.798;12.472;2023-07-30T06:33:44;20.58;77.21
72380;SHT30;60354;47.798;12.472;2023-07-30T06:36:10;20.40;78.56
72380;SHT30;60354;47.798;12.472;2023-07-30T06:38:35;20.67;77.37
72380;SHT30;60354;47.798;12.472;2023-07-30T06:41:01;20.89;76.60
72380;SHT30;60354;47.798;12.472;2023-07-30T06:43:26;21.37;72.95
72380;SHT30;60354;47.798;12.472;2023-07-30T06:45:53;21.27;73.68
72380;SHT30;60354;47.798;12.472;2023-07-30T06:48:18;21.71;73.05
72380;SHT30;60354;47.798;12.472;2023-07-30T06:50:44;21.96;72.20
72380;SHT30;60354;47.798;12.472;2023-07-30T06:53:09;21.94;71.54
72380;SHT30;60354;47.798;12.472;2023-07-30T06:55:35;22.35;71.78
72380;SHT30;60354;47.798;12.472;2023-07-30T06:58:00;22.39;71.22
72380;SHT30;60354;47.798;12.472;2023-07-30T07:00:26;22.53;73.90
72380;SHT30;60354;47.798;12.472;2023-07-30T07:02:51;22.75;73.95
72380;SHT30;60354;47.798;12.472;2023-07-30T07:05:17;23.04;72.14
72380;SHT30;60354;47.798;12.472;2023-07-30T07:07:42;23.24;71.15
72380;SHT30;60354;47.798;12.472;2023-07-30T07:10:08;23.17;69.96
72380;SHT30;60354;47.798;12.472;2023-07-30T07:12:36;23.40;69.28
72380;SHT30;60354;47.798;12.472;2023-07-30T07:15:01;23.33;69.23
72380;SHT30;60354;47.798;12.472;2023-07-30T07:17:28;22.66;70.35
72380;SHT30;60354;47.798;12.472;2023-07-30T07:19:53;22.68;67.85
72380;SHT30;60354;47.798;12.472;2023-07-30T07:22:19;23.07;68.14
72380;SHT30;60354;47.798;12.472;2023-07-30T07:24:44;23.16;66.75
72380;SHT30;60354;47.798;12.472;2023-07-30T07:27:10;23.43;66.03
72380;SHT30;60354;47.798;12.472;2023-07-30T07:29:36;23.23;66.82
72380;SHT30;60354;47.798;12.472;2023-07-30T07:32:02;23.74;66.90
72380;SHT30;60354;47.798;12.472;2023-07-30T07:34:27;23.57;66.09
72380;SHT30;60354;47.798;12.472;2023-07-30T07:36:53;23.77;64.93
72380;SHT30;60354;47.798;12.472;2023-07-30T07:39:19;24.01;65.49
72380;SHT30;60354;47.798;12.472;2023-07-30T07:41:45;24.12;64.12
72380;SHT30;60354;47.798;12.472;2023-07-30T07:44:10;24.06;64.86
72380;SHT30;60354;47.798;12.472;2023-07-30T07:46:36;23.85;64.95
72380;SHT30;60354;47.798;12.472;2023-07-30T07:49:01;24.22;64.70
72380;SHT30;60354;47.798;12.472;2023-07-30T07:51:27;24.59;65.19
72380;SHT30;60354;47.798;12.472;2023-07-30T07:53:52;24.50;63.48
72380;SHT30;60354;47.798;12.472;2023-07-30T07:56:18;24.05;63.60
72380;SHT30;60354;47.798;12.472;2023-07-30T07:58:43;23.90;65.31
72380;SHT30;60354;47.798;12.472;2023-07-30T08:01:09;23.74;63.08
72380;SHT30;60354;47.798;12.472;2023-07-30T08:03:34;24.32;62.79
72380;SHT30;60354;47.798;12.472;2023-07-30T08:06:00;24.55;64.29
72380;SHT30;60354;47.798;12.472;2023-07-30T08:08:26;24.56;62.68
72380;SHT30;60354;47.798;12.472;2023-07-30T08:10:52;24.71;62.70
72380;SHT30;60354;47.798;12.472;2023-07-30T08:13:18;24.77;61.71
72380;SHT30;60354;47.798;12.472;2023-07-30T08:15:43;24.83;62.33
72380;SHT30;60354;47.798;12.472;2023-07-30T08:18:09;24.84;61.82
72380;SHT30;60354;47.798;12.472;2023-07-30T08:20:35;25.31;62.39
72380;SHT30;60354;47.798;12.472;2023-07-30T08:23:00;25.14;62.64
72380;SHT30;60354;47.798;12.472;2023-07-30T08:25:26;24.86;63.50
72380;SHT30;60354;47.798;12.472;2023-07-30T08:27:51;25.22;63.35
72380;SHT30;60354;47.798;12.472;2023-07-30T08:30:17;25.34;61.63
72380;SHT30;60354;47.798;12.472;2023-07-30T08:32:42;25.34;61.63
72380;SHT30;60354;47.798;12.472;2023-07-30T08:35:09;25.26;61.70
72380;SHT30;60354;47.798;12.472;2023-07-30T08:37:35;25.53;61.45
72380;SHT30;60354;47.798;12.472;2023-07-30T08:40:01;25.59;61.78
72380;SHT30;60354;47.798;12.472;2023-07-30T08:42:26;25.55;60.81
72380;SHT30;60354;47.798;12.472;2023-07-30T08:44:52;25.21;61.59
72380;SHT30;60354;47.798;12.472;2023-07-30T08:47:17;25.72;61.55
72380;SHT30;60354;47.798;12.472;2023-07-30T08:49:43;25.17;60.99
72380;SHT30;60354;47.798;12.472;2023-07-30T08:52:10;24.99;62.15
72380;SHT30;60354;47.798;12.472;2023-07-30T08:54:37;25.18;62.00
72380;SHT30;60354;47.798;12.472;2023-07-30T08:57:04;25.04;61.08
72380;SHT30;60354;47.798;12.472;2023-07-30T08:59:39;24.90;61.93
72380;SHT30;60354;47.798;12.472;2023-07-30T09:02:13;25.18;62.03
72380;SHT30;60354;47.798;12.472;2023-07-30T09:04:46;24.98;63.05
72380;SHT30;60354;47.798;12.472;2023-07-30T09:07:13;25.11;61.74
72380;SHT30;60354;47.798;12.472;2023-07-30T09:09:39;24.91;59.91
72380;SHT30;60354;47.798;12.472;2023-07-30T09:12:13;25.46;59.58
72380;SHT30;60354;47.798;12.472;2023-07-30T09:14:38;25.46;59.00
72380;SHT30;60354;47.798;12.472;2023-07-30T09:17:04;25.32;60.13
72380;SHT30;60354;47.798;12.472;2023-07-30T09:19:34;25.31;60.19
72380;SHT30;60354;47.798;12.472;2023-07-30T09:22:04;25.52;60.16
72380;SHT30;60354;47.798;12.472;2023-07-30T09:24:30;25.79;59.88
72380;SHT30;60354;47.798;12.472;2023-07-30T09:26:55;25.46;58.78
72380;SHT30;60354;47.798;12.472;2023-07-30T09:29:23;25.17;61.32
72380;SHT30;60354;47.798;12.472;2023-07-30T09:31:50;24.70;62.17
72380;SHT30;60354;47.798;12.472;2023-07-30T09:34:24;24.77;62.20
72380;SHT30;60354;47.798;12.472;2023-07-30T09:36:51;24.87;60.66
72380;SHT30;60354;47.798;12.472;2023-07-30T09:39:20;24.74;61.52
72380;SHT30;60354;47.798;12.472;2023-07-30T09:41:46;24.83;60.76
72380;SHT30;60354;47.798;12.472;2023-07-30T09:44:13;24.56;61.91
72380;SHT30;60354;47.798;12.472;2023-07-30T09:46:43;24.71;62.78
72380;SHT30;60354;47.798;12.472;2023-07-30T09:49:09;24.37;62.28
72380;SHT30;60354;47.798;12.472;2023-07-30T09:51:37;24.05;63.40
72380;SHT30;60354;47.798;12.472;2023-07-30T09:54:03;23.96;62.99
72380;SHT30;60354;47.798;12.472;2023-07-30T09:56:29;23.79;64.00
72380;SHT30;60354;47.798;12.472;2023-07-30T09:58:54;23.24;73.44
72380;SHT30;60354;47.798;12.472;2023-07-30T10:01:23;22.77;74.00
72380;SHT30;60354;47.798;12.472;2023-07-30T10:03:51;22.22;74.80
72380;SHT30;60354;47.798;12.472;2023-07-30T10:06:18;22.21;76.40
72380;SHT30;60354;47.798;12.472;2023-07-30T10:08:44;22.02;76.84
72380;SHT30;60354;47.798;12.472;2023-07-30T10:11:11;22.45;76.59
72380;SHT30;60354;47.798;12.472;2023-07-30T10:13:38;22.72;76.55
72380;SHT30;60354;47.798;12.472;2023-07-30T10:16:10;22.82;75.90
72380;SHT30;60354;47.798;12.472;2023-07-30T10:18:40;22.97;75.69
72380;SHT30;60354;47.798;12.472;2023-07-30T10:21:11;23.08;76.56
72380;SHT30;60354;47.798;12.472;2023-07-30T10:23:50;23.23;74.57
72380;SHT30;60354;47.798;12.472;2023-07-30T10:26:33;23.16;77.01
72380;SHT30;60354;47.798;12.472;2023-07-30T10:31:40;23.04;74.53
72380;SHT30;60354;47.798;12.472;2023-07-30T10:34:08;22.99;73.66
72380;SHT30;60354;47.798;12.472;2023-07-30T10:36:43;23.40;75.85
72380;SHT30;60354;47.798;12.472;2023-07-30T10:39:19;23.72;67.72
72380;SHT30;60354;47.798;12.472;2023-07-30T10:41:50;23.75;70.58
72380;SHT30;60354;47.798;12.472;2023-07-30T10:44:22;24.06;69.94
72380;SHT30;60354;47.798;12.472;2023-07-30T10:46:48;24.29;67.72
72380;SHT30;60354;47.798;12.472;2023-07-30T10:49:14;24.49;69.36
72380;SHT30;60354;47.798;12.472;2023-07-30T10:51:39;24.61;68.91
72380;SHT30;60354;47.798;12.472;2023-07-30T10:54:06;24.80;68.17
72380;SHT30;60354;47.798;12.472;2023-07-30T10:56:34;24.56;65.37
72380;SHT30;60354;47.798;12.472;2023-07-30T10:59:03;24.49;66.50
72380;SHT30;60354;47.798;12.472;2023-07-30T11:01:29;24.61;64.87
72380;SHT30;60354;47.798;12.472;2023-07-30T11:03:54;24.71;63.80
72380;SHT30;60354;47.798;12.472;2023-07-30T11:06:24;24.56;65.85
72380;SHT30;60354;47.798;12.472;2023-07-30T11:08:50;24.61;63.64
72380;SHT30;60354;47.798;12.472;2023-07-30T11:11:15;24.88;64.36
72380;SHT30;60354;47.798;12.472;2023-07-30T11:13:43;25.14;61.62
72380;SHT30;60354;47.798;12.472;2023-07-30T11:16:10;25.11;62.66
72380;SHT30;60354;47.798;12.472;2023-07-30T11:18:37;25.14;59.74
72380;SHT30;60354;47.798;12.472;2023-07-30T11:21:20;25.04;58.45
72380;SHT30;60354;47.798;12.472;2023-07-30T11:23:45;25.14;60.51
72380;SHT30;60354;47.798;12.472;2023-07-30T11:26:19;24.88;57.85
72380;SHT30;60354;47.798;12.472;2023-07-30T11:28:45;24.90;60.14
72380;SHT30;60354;47.798;12.472;2023-07-30T11:33:41;24.88;59.11
72380;SHT30;60354;47.798;12.472;2023-07-30T11:36:10;24.88;58.50
72380;SHT30;60354;47.798;12.472;2023-07-30T11:38:37;24.77;57.14
72380;SHT30;60354;47.798;12.472;2023-07-30T11:41:03;25.04;59.16
72380;SHT30;60354;47.798;12.472;2023-07-30T11:43:31;25.05;57.03
72380;SHT30;60354;47.798;12.472;2023-07-30T11:46:16;25.04;58.24
72380;SHT30;60354;47.798;12.472;2023-07-30T11:48:45;25.01;59.91
72380;SHT30;60354;47.798;12.472;2023-07-30T11:53:54;25.14;60.85
72380;SHT30;60354;47.798;12.472;2023-07-30T11:58:47;25.34;57.14
72380;SHT30;60354;47.798;12.472;2023-07-30T12:01:14;25.25;58.10
72380;SHT30;60354;47.798;12.472;2023-07-30T12:03:40;24.95;58.03
72380;SHT30;60354;47.798;12.472;2023-07-30T12:06:07;24.90;58.84
72380;SHT30;60354;47.798;12.472;2023-07-30T12:08:34;25.01;59.23
72380;SHT30;60354;47.798;12.472;2023-07-30T12:11:08;24.83;55.22
72380;SHT30;60354;47.798;12.472;2023-07-30T12:13:34;24.67;55.89
72380;SHT30;60354;47.798;12.472;2023-07-30T12:16:06;24.71;57.74
72380;SHT30;60354;47.798;12.472;2023-07-30T12:18:32;24.70;57.43
72380;SHT30;60354;47.798;12.472;2023-07-30T12:20:57;24.78;57.33
72380;SHT30;60354;47.798;12.472;2023-07-30T12:23:23;25.25;59.84
72380;SHT30;60354;47.798;12.472;2023-07-30T12:25:50;25.45;56.89
72380;SHT30;60354;47.798;12.472;2023-07-30T12:28:16;25.34;55.45
72380;SHT30;60354;47.798;12.472;2023-07-30T12:30:41;25.50;57.66
72380;SHT30;60354;47.798;12.472;2023-07-30T12:33:07;25.52;55.41
72380;SHT30;60354;47.798;12.472;2023-07-30T12:35:33;25.28;56.24
72380;SHT30;60354;47.798;12.472;2023-07-30T12:38:01;25.58;56.26
72380;SHT30;60354;47.798;12.472;2023-07-30T12:40:27;25.73;54.34
72380;SHT30;60354;47.798;12.472;2023-07-30T12:42:55;25.61;53.46
72380;SHT30;60354;47.798;12.472;2023-07-30T12:45:20;25.59;55.75
72380;SHT30;60354;47.798;12.472;2023-07-30T12:47:46;25.65;54.69
72380;SHT30;60354;47.798;12.472;2023-07-30T12:50:12;25.38;53.63
72380;SHT30;60354;47.798;12.472;2023-07-30T12:52:37;25.24;53.96
72380;SHT30;60354;47.798;12.472;2023-07-30T12:55:03;25.19;54.46
72380;SHT30;60354;47.798;12.472;2023-07-30T12:57:30;25.10;55.18
72380;SHT30;60354;47.798;12.472;2023-07-30T12:59:56;24.94;55.61
72380;SHT30;60354;47.798;12.472;2023-07-30T13:02:21;25.07;55.62
72380;SHT30;60354;47.798;12.472;2023-07-30T13:04:47;25.24;55.00
72380;SHT30;60354;47.798;12.472;2023-07-30T13:07:12;25.39;55.76
72380;SHT30;60354;47.798;12.472;2023-07-30T13:09:38;25.31;54.75
72380;SHT30;60354;47.798;12.472;2023-07-30T13:12:03;25.31;55.95
72380;SHT30;60354;47.798;12.472;2023-07-30T13:14:29;25.32;54.73
72380;SHT30;60354;47.798;12.472;2023-07-30T13:16:54;25.28;56.79
72380;SHT30;60354;47.798;12.472;2023-07-30T13:19:20;25.15;55.37
72380;SHT30;60354;47.798;12.472;2023-07-30T13:21:45;25.17;55.34
72380;SHT30;60354;47.798;12.472;2023-07-30T13:24:11;25.03;56.57
72380;SHT30;60354;47.798;12.472;2023-07-30T13:26:36;24.99;56.44
72380;SHT30;60354;47.798;12.472;2023-07-30T13:29:01;25.11;56.61
72380;SHT30;60354;47.798;12.472;2023-07-30T13:31:28;25.03;56.34
72380;SHT30;60354;47.798;12.472;2023-07-30T13:33:54;25.21;56.18
72380;SHT30;60354;47.798;12.472;2023-07-30T13:36:19;25.26;56.07
72380;SHT30;60354;47.798;12.472;2023-07-30T13:38:44;25.29;57.78
72380;SHT30;60354;47.798;12.472;2023-07-30T13:41:10;25.01;56.73
72380;SHT30;60354;47.798;12.472;2023-07-30T13:43:35;24.88;57.04
72380;SHT30;60354;47.798;12.472;2023-07-30T13:46:01;24.91;56.85
72380;SHT30;60354;47.798;12.472;2023-07-30T13:48:27;25.26;57.76
72380;SHT30;60354;47.798;12.472;2023-07-30T13:50:53;25.46;55.88
72380;SHT30;60354;47.798;12.472;2023-07-30T13:53:19;25.67;56.96
72380;SHT30;60354;47.798;12.472;2023-07-30T13:55:45;25.43;54.63
72380;SHT30;60354;47.798;12.472;2023-07-30T13:58:10;25.43;54.98
72380;SHT30;60354;47.798;12.472;2023-07-30T14:00:36;25.58;56.46
72380;SHT30;60354;47.798;12.472;2023-07-30T14:03:02;25.72;56.04
72380;SHT30;60354;47.798;12.472;2023-07-30T14:05:27;25.92;57.05
72380;SHT30;60354;47.798;12.472;2023-07-30T14:07:54;25.70;56.40
72380;SHT30;60354;47.798;12.472;2023-07-30T14:10:24;25.65;57.27
72380;SHT30;60354;47.798;12.472;2023-07-30T14:12:50;25.63;57.76
72380;SHT30;60354;47.798;12.472;2023-07-30T14:15:16;25.48;57.11
72380;SHT30;60354;47.798;12.472;2023-07-30T14:17:42;25.14;57.38
72380;SHT30;60354;47.798;12.472;2023-07-30T14:20:08;25.04;57.47
72380;SHT30;60354;47.798;12.472;2023-07-30T14:22:34;25.12;57.73
72380;SHT30;60354;47.798;12.472;2023-07-30T14:25:02;25.18;58.08
72380;SHT30;60354;47.798;12.472;2023-07-30T14:27:28;25.24;58.36
72380;SHT30;60354;47.798;12.472;2023-07-30T14:29:53;25.01;56.90
72380;SHT30;60354;47.798;12.472;2023-07-30T14:32:23;24.97;55.46
72380;SHT30;60354;47.798;12.472;2023-07-30T14:34:48;24.94;56.55
72380;SHT30;60354;47.798;12.472;2023-07-30T14:37:14;24.56;56.12
72380;SHT30;60354;47.798;12.472;2023-07-30T14:39:39;24.20;56.20
72380;SHT30;60354;47.798;12.472;2023-07-30T14:42:05;24.46;56.34
72380;SHT30;60354;47.798;12.472;2023-07-30T14:44:31;24.46;55.62
72380;SHT30;60354;47.798;12.472;2023-07-30T14:46:57;24.44;56.42
72380;SHT30;60354;47.798;12.472;2023-07-30T14:49:24;24.43;56.88
72380;SHT30;60354;47.798;12.472;2023-07-30T14:51:49;24.46;56.65
72380;SHT30;60354;47.798;12.472;2023-07-30T14:54:17;24.60;55.16
72380;SHT30;60354;47.798;12.472;2023-07-30T14:56:43;24.66;55.58
72380;SHT30;60354;47.798;12.472;2023-07-30T14:59:09;24.81;56.94
72380;SHT30;60354;47.798;12.472;2023-07-30T15:01:35;25.14;55.98
72380;SHT30;60354;47.798;12.472;2023-07-30T15:04:00;25.12;54.18
72380;SHT30;60354;47.798;12.472;2023-07-30T15:06:26;25.35;53.85
72380;SHT30;60354;47.798;12.472;2023-07-30T15:08:55;25.48;54.03
72380;SHT30;60354;47.798;12.472;2023-07-30T15:11:20;25.34;53.40
72380;SHT30;60354;47.798;12.472;2023-07-30T15:13:46;25.55;53.82
72380;SHT30;60354;47.798;12.472;2023-07-30T15:16:11;25.59;54.18
72380;SHT30;60354;47.798;12.472;2023-07-30T15:18:37;25.65;53.45
72380;SHT30;60354;47.798;12.472;2023-07-30T15:21:03;24.94;58.64
72380;SHT30;60354;47.798;12.472;2023-07-30T15:23:28;24.06;61.97